Southwest Oregon Regional Airport
KOTH : rendu visible

Aérodrome :











RETROUVEZ-NOUS SUR...

 
LOGIN :

S'inscrire | Disclaimer

   EN    FR    IT 

 









Légende :    VFR   VFR Marginal   IFR   IFR Intensif   IFR Très Intensif
Visi : 
Plafond : 
>= 8 km
>= 3000ft
5 à 8 km
1000 à 3000 ft
1500m à 5 km
500 à 1000 ft
800 à 1500m
200 à 500 ft
< 800m
< 200 ft
Symboles :   Orages  Brouillard  Fortes neiges  Fortes précipitations  Vent > 20 kt






- Altitude de l'aérodrome : 17 ft
- Code IATA : OTH


KOTH - Southwest Oregon Regional

DERNIER METAR :
  • 100906Z AUTO 15006KT 10SM OVC014 08/08 A3021 RMK AO2

METARs EXPIRÉS :
  • 100856Z AUTO 13007KT 10SM OVC016 08/08 A3020 RMK AO2 SLP227 T00830078 53004
  • 100826Z AUTO 16005KT 9SM OVC016 08/08 A3021 RMK AO2
  • 100756Z AUTO 15004KT 8SM OVC014 08/07 A3021 RMK AO2 SLP228 T00830072 400940039
  • 100656Z AUTO 12005KT 7SM OVC014 08/08 A3019 RMK AO2 SLP221 T00830078

TAF KOTH
Valide du 10 à 06h jusqu'au 11 à 06h UTC


100529Z 1006/1106 15003KT P6SM OVC010
FM101000 14005KT P6SM OVC003
FM101600 14005KT 6SM -RADZ FEW007 OVC015
FM101800 14005KT 4SM -RA BR OVC015



MET'MAP, la Météo Aéronautique d'un coup d'oeil ! - Copyright ORBIFLY Décembre 2007 - Disclaimer

ORBIFLY MET'MAP TEAM :

Programmation & Développement : Alexandra Zaïnal
Sur une idée originale de : Baudouin d'Aumeries
Assistance à la programmation : Marc-Olivier Méhu
Soutien technique & logistique : Manuel Goepfert

Contact : metmap@orbifly.com




SOURCES & CREDITS :

   NOAA       Earth
Advisory